Time;durP1;ratioP1;P1;durP2;ratioP2;P2;SDS_P1;SDS_P2;PMS_P1;PMS_P2;Temp;Humidity;BMP_temperature;BMP_pressure;BME280_temperature;BME280_humidity;BME280_pressure;Samples;Min_cycle;Max_cycle;Signal;HPM_P1;HPM_P2
2022/08/16 00:01:31;;;;;;;16.42;10.02;;;19.10;99.90;;;;;;5030785;28;20029;-75
2022/08/16 00:03:58;;;;;;;11.00;9.52;;;19.00;99.90;;;;;;5032651;28;20093;-75
2022/08/16 00:06:24;;;;;;;12.50;9.35;;;19.00;99.90;;;;;;5032756;28;20100;-75
2022/08/16 00:08:50;;;;;;;16.80;10.32;;;18.90;99.90;;;;;;5028258;28;20117;-75
2022/08/16 00:11:15;;;;;;;15.32;10.32;;;18.90;99.90;;;;;;5031663;28;20037;-75
2022/08/16 00:13:42;;;;;;;13.30;10.60;;;18.80;99.90;;;;;;5029614;28;20029;-75
2022/08/16 00:16:08;;;;;;;11.05;9.40;;;18.80;99.90;;;;;;5032634;28;20037;-75
2022/08/16 00:18:34;;;;;;;12.80;10.57;;;18.80;99.90;;;;;;5030959;28;20026;-73
2022/08/16 00:20:59;;;;;;;15.80;10.10;;;18.80;99.90;;;;;;5032274;28;20100;-75
2022/08/16 00:23:25;;;;;;;12.10;8.90;;;18.70;99.90;;;;;;5028631;28;20036;-73
2022/08/16 00:25:50;;;;;;;16.95;10.13;;;18.70;99.90;;;;;;5030899;28;20037;-73
2022/08/16 00:28:16;;;;;;;15.65;10.45;;;18.60;99.90;;;;;;5031968;28;20108;-74
2022/08/16 00:30:42;;;;;;;13.75;8.80;;;18.70;99.90;;;;;;5029748;28;20038;-74
2022/08/16 00:33:08;;;;;;;12.43;9.82;;;18.60;99.90;;;;;;5031462;28;20113;-74
2022/08/16 00:35:36;;;;;;;12.25;9.38;;;18.50;99.90;;;;;;5030610;28;20060;-74
2022/08/16 00:38:04;;;;;;;9.90;8.77;;;18.50;99.90;;;;;;5032378;28;20033;-74
2022/08/16 00:40:44;;;;;;;10.48;8.98;;;18.50;99.90;;;;;;5025569;28;20029;-74
2022/08/16 00:43:16;;;;;;;13.32;8.70;;;18.50;99.90;;;;;;5029863;28;20034;-74
2022/08/16 00:46:05;;;;;;;12.63;10.13;;;18.50;99.90;;;;;;5029702;28;20034;-74
2022/08/16 00:48:32;;;;;;;16.38;12.00;;;18.50;99.90;;;;;;5029823;28;20018;-73
2022/08/16 00:51:02;;;;;;;16.23;11.57;;;18.60;99.90;;;;;;5031352;28;20115;-75
2022/08/16 00:53:28;;;;;;;18.27;10.85;;;18.60;99.90;;;;;;5031404;28;20018;-74
2022/08/16 00:55:55;;;;;;;13.32;9.63;;;18.50;99.90;;;;;;5031485;28;20027;-76
2022/08/16 00:58:25;;;;;;;13.43;11.45;;;18.40;99.90;;;;;;5024825;28;20030;-75
2022/08/16 01:00:51;;;;;;;14.77;12.02;;;18.40;99.90;;;;;;5029620;28;20044;-75
2022/08/16 01:03:22;;;;;;;13.80;11.43;;;18.30;99.90;;;;;;5031886;28;20036;-75
2022/08/16 01:05:48;;;;;;;16.33;12.48;;;18.30;99.90;;;;;;5025005;28;20026;-74
2022/08/16 01:08:19;;;;;;;17.15;12.40;;;18.20;99.90;;;;;;5031852;28;20083;-74
2022/08/16 01:10:45;;;;;;;19.08;13.95;;;18.20;99.90;;;;;;5023902;28;20084;-74
2022/08/16 01:13:14;;;;;;;17.23;14.18;;;18.30;99.90;;;;;;5029874;28;20140;-73
2022/08/16 01:15:55;;;;;;;17.30;12.75;;;18.30;99.90;;;;;;5029527;28;20557;-74
2022/08/16 01:18:23;;;;;;;16.98;13.07;;;18.30;99.90;;;;;;5031186;28;20028;-74
2022/08/16 01:20:57;;;;;;;15.70;12.52;;;18.40;99.90;;;;;;5028585;28;20474;-75
2022/08/16 01:23:35;;;;;;;17.13;11.38;;;18.40;99.90;;;;;;5030426;28;20025;-74
2022/08/16 01:26:01;;;;;;;15.38;12.20;;;18.30;99.90;;;;;;5024995;28;20452;-75
2022/08/16 01:28:28;;;;;;;16.17;12.65;;;18.30;99.90;;;;;;5030328;28;20029;-75
2022/08/16 01:30:57;;;;;;;16.52;12.05;;;18.30;99.90;;;;;;5028092;28;20401;-75
2022/08/16 01:33:23;;;;;;;15.43;11.98;;;18.30;99.90;;;;;;5030041;28;20024;-75
2022/08/16 01:35:55;;;;;;;19.20;13.73;;;18.40;99.90;;;;;;5029177;28;20496;-74
2022/08/16 01:38:21;;;;;;;16.23;11.82;;;18.40;99.90;;;;;;5030955;28;20034;-73
2022/08/16 01:40:48;;;;;;;20.27;13.38;;;18.50;99.90;;;;;;5029281;28;20074;-74
2022/08/16 01:43:14;;;;;;;18.65;13.73;;;18.50;99.90;;;;;;5027253;28;20499;-74
2022/08/16 01:45:40;;;;;;;14.82;12.32;;;18.50;99.90;;;;;;5026339;28;20025;-76
2022/08/16 01:48:06;;;;;;;17.02;12.30;;;18.50;99.90;;;;;;5030637;28;20017;-76
2022/08/16 01:50:33;;;;;;;15.68;12.55;;;18.50;99.90;;;;;;5027775;28;20041;-74
2022/08/16 01:52:58;;;;;;;16.10;11.75;;;18.60;99.90;;;;;;5029367;28;20032;-74
2022/08/16 01:55:24;;;;;;;12.82;11.18;;;18.60;99.90;;;;;;5029859;28;20034;-75
2022/08/16 01:57:51;;;;;;;16.05;10.60;;;18.70;99.90;;;;;;5027436;28;20072;-73
2022/08/16 02:00:17;;;;;;;12.68;10.52;;;18.70;99.90;;;;;;5031008;28;20087;-73
2022/08/16 02:02:43;;;;;;;15.63;10.32;;;18.70;99.90;;;;;;5028924;28;20071;-74
2022/08/16 02:05:10;;;;;;;14.82;11.32;;;18.60;99.90;;;;;;5029616;28;20999;-74
2022/08/16 02:07:37;;;;;;;15.50;11.80;;;18.60;99.90;;;;;;5027333;28;20021;-75
2022/08/16 02:10:05;;;;;;;14.48;10.68;;;18.60;99.90;;;;;;5029354;28;20028;-76
2022/08/16 02:12:31;;;;;;;15.40;11.20;;;18.60;99.90;;;;;;5026705;28;20034;-75
2022/08/16 02:14:57;;;;;;;16.40;12.38;;;18.60;99.90;;;;;;5029324;28;20084;-76
2022/08/16 02:17:23;;;;;;;16.73;11.30;;;18.50;99.90;;;;;;5030089;28;20025;-76
2022/08/16 02:19:50;;;;;;;16.85;11.95;;;18.50;99.90;;;;;;5024642;28;20481;-75
2022/08/16 02:22:21;;;;;;;12.30;10.98;;;18.40;99.90;;;;;;5026855;28;20427;-76
2022/08/16 02:24:47;;;;;;;14.90;9.95;;;18.40;99.90;;;;;;5029756;28;20100;-76
2022/08/16 02:27:13;;;;;;;12.00;9.55;;;18.40;99.90;;;;;;5029267;28;20142;-76
2022/08/16 02:29:40;;;;;;;11.82;9.68;;;18.30;99.90;;;;;;5021020;28;20029;-74
2022/08/16 02:32:08;;;;;;;12.95;9.82;;;18.20;99.90;;;;;;5027615;28;20056;-74
2022/08/16 02:34:33;;;;;;;9.82;8.65;;;18.10;99.90;;;;;;5027481;28;20063;-74
2022/08/16 02:36:59;;;;;;;18.45;11.90;;;18.10;99.90;;;;;;5028234;28;20034;-74
2022/08/16 02:39:25;;;;;;;16.27;10.95;;;18.00;99.90;;;;;;5029274;28;20422;-73
2022/08/16 02:41:52;;;;;;;15.15;11.43;;;17.90;99.90;;;;;;5026263;28;20036;-73
2022/08/16 02:44:18;;;;;;;14.00;12.10;;;17.90;99.90;;;;;;5026214;28;20072;-73
2022/08/16 02:46:44;;;;;;;14.40;11.63;;;17.90;99.90;;;;;;5027692;28;20036;-74
2022/08/16 02:49:11;;;;;;;13.98;11.45;;;17.90;99.90;;;;;;5029986;28;20030;-75
2022/08/16 02:51:38;;;;;;;24.80;14.45;;;17.80;99.90;;;;;;5027879;28;20044;-74
2022/08/16 02:54:05;;;;;;;15.63;12.23;;;17.80;99.90;;;;;;5027823;28;20481;-75
2022/08/16 02:56:31;;;;;;;17.23;13.15;;;17.80;99.90;;;;;;5024464;28;20120;-75
2022/08/16 02:58:57;;;;;;;17.75;13.68;;;17.70;99.90;;;;;;5029732;28;20112;-75
2022/08/16 03:01:26;;;;;;;18.48;12.45;;;17.80;99.90;;;;;;5028668;28;20508;-75
2022/08/16 03:03:53;;;;;;;17.05;13.27;;;17.80;99.90;;;;;;5027651;28;20478;-74
2022/08/16 03:06:20;;;;;;;13.50;11.63;;;17.80;99.90;;;;;;5029755;28;20080;-75
2022/08/16 03:08:46;;;;;;;16.15;12.00;;;17.80;99.90;;;;;;5028437;28;20102;-75
2022/08/16 03:11:12;;;;;;;16.35;12.98;;;17.80;99.90;;;;;;5023737;28;20060;-74
2022/08/16 03:13:39;;;;;;;17.98;12.43;;;17.80;99.90;;;;;;5027358;28;20098;-76
2022/08/16 03:16:05;;;;;;;13.25;11.85;;;17.70;99.90;;;;;;5029619;28;20030;-75
2022/08/16 03:18:30;;;;;;;19.15;12.90;;;17.70;99.90;;;;;;5027619;28;20117;-74
2022/08/16 03:20:58;;;;;;;17.15;11.45;;;17.80;99.90;;;;;;5029406;28;20440;-74
2022/08/16 03:23:24;;;;;;;19.63;12.93;;;17.80;99.90;;;;;;5028483;28;20037;-74
2022/08/16 03:25:50;;;;;;;19.35;13.82;;;17.80;99.90;;;;;;5027109;28;20063;-76
2022/08/16 03:28:16;;;;;;;17.02;13.02;;;17.90;99.90;;;;;;5029298;28;20112;-76
2022/08/16 03:30:41;;;;;;;20.27;14.23;;;17.90;99.90;;;;;;5026657;28;20045;-74
2022/08/16 03:33:07;;;;;;;18.02;11.90;;;17.90;99.90;;;;;;5028507;28;20030;-74
2022/08/16 03:35:35;;;;;;;16.33;12.63;;;18.00;99.90;;;;;;5027432;28;20090;-75
2022/08/16 03:38:04;;;;;;;13.25;11.52;;;18.00;99.90;;;;;;5021176;28;20058;-75
2022/08/16 03:40:32;;;;;;;15.35;11.48;;;18.00;99.90;;;;;;5026177;28;20478;-75
2022/08/16 03:42:57;;;;;;;17.60;12.63;;;18.00;99.90;;;;;;5027587;28;20042;-75
2022/08/16 03:45:24;;;;;;;17.58;13.80;;;18.00;99.90;;;;;;5028545;28;20086;-75
2022/08/16 03:47:50;;;;;;;19.52;12.43;;;17.90;99.90;;;;;;5027423;28;20048;-76
2022/08/16 03:50:16;;;;;;;16.35;12.32;;;17.90;99.90;;;;;;5028096;28;20038;-75
2022/08/16 03:52:42;;;;;;;13.27;10.95;;;17.90;99.90;;;;;;5026721;28;20029;-74
2022/08/16 03:55:09;;;;;;;12.05;10.57;;;17.80;99.90;;;;;;5029228;28;20056;-74
2022/08/16 03:57:35;;;;;;;14.43;11.27;;;17.80;99.90;;;;;;5024464;28;20183;-74
2022/08/16 04:00:16;;;;;;;21.27;11.80;;;17.70;99.90;;;;;;5028397;28;20036;-74
2022/08/16 04:02:43;;;;;;;16.85;11.18;;;17.70;99.90;;;;;;5020970;28;20489;-74
2022/08/16 04:05:16;;;;;;;15.88;11.18;;;17.60;99.90;;;;;;5028995;28;20030;-73
2022/08/16 04:07:42;;;;;;;13.75;10.25;;;17.60;99.90;;;;;;5027236;28;20061;-72
2022/08/16 04:10:10;;;;;;;17.70;10.98;;;17.60;99.90;;;;;;5028013;28;20433;-72
2022/08/16 04:12:37;;;;;;;19.63;10.68;;;17.60;99.90;;;;;;5024984;28;20040;-74
2022/08/16 04:15:05;;;;;;;11.80;10.43;;;17.60;99.90;;;;;;5028774;28;20026;-73
2022/08/16 04:17:31;;;;;;;16.55;10.52;;;17.60;99.90;;;;;;5027404;28;20025;-73
2022/08/16 04:19:57;;;;;;;16.02;11.13;;;17.50;99.90;;;;;;5028978;28;20359;-74
2022/08/16 04:22:23;;;;;;;16.63;11.18;;;17.60;99.90;;;;;;5028628;28;20509;-73
2022/08/16 04:24:49;;;;;;;17.30;13.73;;;17.60;99.90;;;;;;5026209;28;20037;-73
2022/08/16 04:27:15;;;;;;;15.30;11.07;;;17.60;99.90;;;;;;5021784;28;20080;-73
2022/08/16 04:29:41;;;;;;;16.73;11.35;;;17.60;99.90;;;;;;5029110;28;20037;-73
2022/08/16 04:32:07;;;;;;;15.68;11.20;;;17.60;99.90;;;;;;5027049;28;20486;-75
2022/08/16 04:34:36;;;;;;;20.27;12.25;;;17.70;99.90;;;;;;5027735;28;20022;-75
2022/08/16 04:37:02;;;;;;;15.07;11.65;;;17.60;99.90;;;;;;5031322;28;20132;-74
2022/08/16 04:39:30;;;;;;;19.15;13.35;;;17.60;99.90;;;;;;5031993;28;20021;-74
2022/08/16 04:41:56;;;;;;;21.48;12.88;;;17.60;99.90;;;;;;5030850;28;20033;-74
2022/08/16 04:44:23;;;;;;;18.95;11.85;;;17.60;99.90;;;;;;5030099;28;20049;-74
2022/08/16 04:46:48;;;;;;;19.23;14.15;;;17.60;99.90;;;;;;5030607;28;20041;-73
2022/08/16 04:49:14;;;;;;;17.55;13.38;;;17.70;99.90;;;;;;5032125;28;20025;-74
2022/08/16 04:51:40;;;;;;;20.05;14.55;;;17.70;99.90;;;;;;5029145;28;20033;-74
2022/08/16 04:54:07;;;;;;;20.77;13.43;;;17.70;99.90;;;;;;5031273;28;20107;-73
2022/08/16 04:56:34;;;;;;;21.63;13.52;;;17.70;99.90;;;;;;5029109;28;20029;-74
2022/08/16 04:58:59;;;;;;;22.30;14.07;;;17.70;99.90;;;;;;5031804;28;20112;-75
2022/08/16 05:01:25;;;;;;;18.88;13.32;;;17.80;99.90;;;;;;5030810;28;20116;-74
2022/08/16 05:03:52;;;;;;;20.58;13.57;;;17.80;99.90;;;;;;5027697;28;20072;-74
2022/08/16 05:06:18;;;;;;;17.08;13.40;;;17.90;99.90;;;;;;5031652;28;20481;-74
2022/08/16 05:08:44;;;;;;;20.27;12.93;;;17.90;99.90;;;;;;5030010;28;20432;-74
2022/08/16 05:11:12;;;;;;;17.90;12.70;;;18.00;99.90;;;;;;5031451;28;20095;-74
2022/08/16 05:13:40;;;;;;;18.55;13.52;;;18.10;99.90;;;;;;5028459;28;20032;-74
2022/08/16 05:16:08;;;;;;;20.95;12.65;;;18.10;99.90;;;;;;5024738;28;20041;-75
2022/08/16 05:18:35;;;;;;;19.90;12.93;;;18.20;99.90;;;;;;5023687;28;20033;-75
2022/08/16 05:21:01;;;;;;;21.80;12.73;;;18.30;99.90;;;;;;5031309;28;20037;-74
2022/08/16 05:23:27;;;;;;;18.52;12.90;;;18.30;99.90;;;;;;5028524;28;20083;-76
2022/08/16 05:25:53;;;;;;;18.88;12.73;;;18.30;99.90;;;;;;5028917;28;20037;-75
2022/08/16 05:28:19;;;;;;;20.55;11.98;;;18.50;99.90;;;;;;5031729;28;20026;-75
2022/08/16 05:30:45;;;;;;;18.52;12.73;;;18.60;99.90;;;;;;5022867;28;20053;-75
2022/08/16 05:33:11;;;;;;;17.42;12.43;;;18.60;99.90;;;;;;5028911;28;20055;-74
2022/08/16 05:35:37;;;;;;;18.10;11.65;;;18.60;99.90;;;;;;5026017;28;20025;-74
2022/08/16 05:38:03;;;;;;;18.50;12.70;;;18.60;99.90;;;;;;5031657;28;20025;-73
2022/08/16 05:40:28;;;;;;;20.83;12.50;;;18.70;99.90;;;;;;5030138;28;20033;-74
2022/08/16 05:42:54;;;;;;;14.75;12.13;;;18.70;99.90;;;;;;5026257;28;20025;-74
2022/08/16 05:45:20;;;;;;;17.92;11.68;;;18.70;99.90;;;;;;5026361;28;20497;-74
2022/08/16 05:47:45;;;;;;;16.95;13.55;;;18.70;99.90;;;;;;5031275;28;20064;-74
2022/08/16 05:50:11;;;;;;;23.38;13.70;;;18.80;99.90;;;;;;5029120;28;20508;-75
2022/08/16 05:52:37;;;;;;;24.10;15.73;;;18.80;99.90;;;;;;5028081;28;20040;-75
2022/08/16 05:55:04;;;;;;;24.52;13.63;;;18.80;99.90;;;;;;5025569;28;20018;-75
2022/08/16 05:57:30;;;;;;;23.00;15.45;;;18.80;99.90;;;;;;5028405;28;20035;-75
2022/08/16 05:59:56;;;;;;;21.10;15.18;;;18.80;99.90;;;;;;5029765;28;20025;-76
2022/08/16 06:02:23;;;;;;;23.35;16.15;;;18.80;99.90;;;;;;5030893;28;20036;-77
2022/08/16 06:04:49;;;;;;;19.42;15.35;;;18.80;99.90;;;;;;5027419;28;20022;-77
2022/08/16 06:07:15;;;;;;;25.38;16.33;;;18.80;99.90;;;;;;5025016;28;20045;-77
2022/08/16 06:09:41;;;;;;;26.98;18.23;;;19.00;99.90;;;;;;5029369;28;20029;-76
2022/08/16 06:12:07;;;;;;;23.90;18.25;;;18.90;99.90;;;;;;5031329;28;20025;-76
2022/08/16 06:14:33;;;;;;;27.23;17.67;;;18.90;99.90;;;;;;5029709;28;20021;-77
2022/08/16 06:16:58;;;;;;;24.92;18.35;;;19.00;99.90;;;;;;5030883;28;20500;-77
2022/08/16 06:19:24;;;;;;;25.58;18.25;;;19.10;99.90;;;;;;5030802;28;20033;-77
2022/08/16 06:21:50;;;;;;;26.52;16.27;;;19.10;99.90;;;;;;5028145;28;20032;-76
2022/08/16 06:24:15;;;;;;;23.27;17.23;;;19.10;99.90;;;;;;5030322;28;20103;-76
2022/08/16 06:26:41;;;;;;;30.20;17.13;;;19.20;99.90;;;;;;5028378;28;20571;-78
2022/08/16 06:29:07;;;;;;;22.95;16.85;;;19.20;99.90;;;;;;5029894;28;20420;-78
2022/08/16 06:31:32;;;;;;;22.10;17.02;;;19.20;99.90;;;;;;5022349;28;20033;-76
2022/08/16 06:33:58;;;;;;;25.17;17.67;;;19.20;99.90;;;;;;5024547;28;20028;-75
2022/08/16 06:36:24;;;;;;;26.77;16.88;;;19.20;99.90;;;;;;5028997;28;20051;-76
2022/08/16 06:38:50;;;;;;;25.77;16.70;;;19.30;99.90;;;;;;5030267;28;20041;-75
2022/08/16 06:41:16;;;;;;;20.77;14.68;;;19.40;99.90;;;;;;5030290;28;20037;-78
2022/08/16 06:43:42;;;;;;;26.77;16.88;;;19.50;99.90;;;;;;5021509;28;20056;-80
2022/08/16 06:46:22;;;;;;;26.75;16.23;;;19.50;99.90;;;;;;5023450;28;20630;-79
2022/08/16 06:48:47;;;;;;;26.75;15.52;;;19.60;99.90;;;;;;5011007;28;20036;-79
2022/08/16 06:51:13;;;;;;;30.52;16.65;;;19.70;99.90;;;;;;5029290;28;20045;-80
2022/08/16 06:53:39;;;;;;;23.27;15.13;;;19.70;99.90;;;;;;5022804;28;20362;-78
2022/08/16 06:56:06;;;;;;;20.17;15.60;;;19.90;99.90;;;;;;5020930;28;20057;-79
2022/08/16 06:58:33;;;;;;;22.50;14.15;;;19.90;99.90;;;;;;5024159;28;20555;-77
2022/08/16 07:01:02;;;;;;;30.67;15.43;;;19.90;99.90;;;;;;5025475;28;20113;-79
2022/08/16 07:03:30;;;;;;;28.75;15.65;;;20.00;99.90;;;;;;5023632;28;20036;-80
2022/08/16 07:05:55;;;;;;;23.27;15.38;;;20.00;99.90;;;;;;5023038;28;20033;-80
2022/08/16 07:08:25;;;;;;;24.45;15.25;;;20.00;99.90;;;;;;5025679;28;20029;-81
2022/08/16 07:10:52;;;;;;;24.38;15.02;;;20.10;99.90;;;;;;5027580;28;20049;-80
2022/08/16 07:13:18;;;;;;;20.48;15.05;;;20.20;99.90;;;;;;5032302;28;20480;-81
2022/08/16 07:15:44;;;;;;;24.38;14.55;;;20.30;99.90;;;;;;5028452;28;20029;-82
2022/08/16 07:18:10;;;;;;;24.02;14.30;;;20.30;99.90;;;;;;5029779;28;20022;-79
2022/08/16 07:20:37;;;;;;;23.30;15.35;;;20.30;99.90;;;;;;5028356;28;20040;-80
2022/08/16 07:23:05;;;;;;;29.25;14.80;;;20.30;99.90;;;;;;5026483;28;20489;-80
2022/08/16 07:25:32;;;;;;;23.67;14.27;;;20.30;99.90;;;;;;5025674;28;20040;-79
2022/08/16 07:27:59;;;;;;;25.95;14.52;;;20.40;99.90;;;;;;5020942;28;20044;-79
2022/08/16 07:30:25;;;;;;;24.83;14.77;;;20.50;99.90;;;;;;5024975;28;20037;-78
2022/08/16 07:32:52;;;;;;;24.25;12.98;;;20.50;99.90;;;;;;5020673;28;20084;-80
2022/08/16 07:35:18;;;;;;;23.52;13.75;;;20.50;99.90;;;;;;5022230;28;20095;-79
2022/08/16 07:37:44;;;;;;;19.17;13.10;;;20.50;99.90;;;;;;5025308;28;20029;-79
2022/08/16 07:40:10;;;;;;;23.13;13.63;;;20.50;99.90;;;;;;5025594;28;20433;-78
2022/08/16 07:43:04;;;;;;;22.58;13.93;;;20.50;99.90;;;;;;5020545;28;20037;-78
2022/08/16 07:45:49;;;;;;;20.85;14.82;;;20.40;99.90;;;;;;5012946;28;20042;-78
2022/08/16 07:48:16;;;;;;;25.67;15.82;;;20.30;99.90;;;;;;5021967;28;20540;-78
2022/08/16 07:50:42;;;;;;;29.60;19.48;;;20.20;99.90;;;;;;5022312;28;20416;-77
2022/08/16 07:53:08;;;;;;;28.45;21.27;;;20.00;99.90;;;;;;5024682;28;20025;-78
2022/08/16 07:55:34;;;;;;;35.58;24.20;;;19.90;99.90;;;;;;5020105;28;20379;-76
2022/08/16 07:58:01;;;;;;;28.63;18.98;;;19.80;99.90;;;;;;5015031;28;20055;-77
2022/08/16 08:00:26;;;;;;;33.20;19.00;;;19.70;99.90;;;;;;5022087;28;20053;-78
2022/08/16 08:02:54;;;;;;;33.60;17.27;;;19.70;99.90;;;;;;5022144;28;20071;-76
2022/08/16 08:05:21;;;;;;;27.45;17.83;;;19.70;99.90;;;;;;5025623;28;20083;-79
2022/08/16 08:07:47;;;;;;;28.10;17.20;;;19.60;99.90;;;;;;5024509;28;20037;-78
2022/08/16 08:10:13;;;;;;;31.02;18.00;;;19.60;99.90;;;;;;5029858;28;20026;-79
2022/08/16 08:12:39;;;;;;;25.55;18.30;;;19.50;99.90;;;;;;5027454;28;20038;-77
2022/08/16 08:15:08;;;;;;;28.40;18.17;;;19.40;99.90;;;;;;5032250;28;20017;-76
2022/08/16 08:17:37;;;;;;;32.00;17.25;;;19.40;99.90;;;;;;5027662;28;20400;-76
2022/08/16 08:20:04;;;;;;;25.35;17.35;;;19.40;99.90;;;;;;5025500;28;20037;-76
2022/08/16 08:22:29;;;;;;;30.02;19.20;;;19.30;99.90;;;;;;5030987;28;20038;-82
2022/08/16 08:24:56;;;;;;;26.55;17.98;;;19.40;99.90;;;;;;5019111;28;20037;-76
2022/08/16 08:27:21;;;;;;;32.88;19.50;;;19.30;99.90;;;;;;5025553;28;20186;-75
2022/08/16 08:29:47;;;;;;;24.05;15.90;;;19.30;99.90;;;;;;5026081;28;20116;-73
2022/08/16 08:32:14;;;;;;;23.85;13.95;;;19.10;99.90;;;;;;5021807;28;20501;-73
2022/08/16 08:34:39;;;;;;;24.90;13.75;;;19.00;99.90;;;;;;5022784;28;20026;-74
2022/08/16 08:37:05;;;;;;;23.77;13.23;;;19.00;99.90;;;;;;5027392;28;20476;-74
2022/08/16 08:39:31;;;;;;;23.05;15.30;;;18.90;99.90;;;;;;5027456;28;20476;-72
2022/08/16 08:41:56;;;;;;;28.42;13.25;;;19.00;99.90;;;;;;5026211;28;20045;-71
2022/08/16 08:44:22;;;;;;;16.23;11.75;;;19.10;99.90;;;;;;5027876;28;20157;-72
2022/08/16 08:46:47;;;;;;;22.20;12.77;;;19.10;99.90;;;;;;5026849;28;20030;-73
2022/08/16 08:49:13;;;;;;;24.00;14.38;;;19.20;99.90;;;;;;5020421;28;20494;-73
2022/08/16 08:51:39;;;;;;;23.88;12.90;;;19.30;99.90;;;;;;5023367;28;20444;-73
2022/08/16 08:54:07;;;;;;;18.40;12.02;;;19.30;99.90;;;;;;5025043;28;20440;-75
2022/08/16 08:56:36;;;;;;;22.05;13.93;;;19.30;99.90;;;;;;5020911;28;20033;-75
2022/08/16 08:59:03;;;;;;;19.33;12.32;;;19.40;99.90;;;;;;5020287;28;20055;-74
2022/08/16 09:01:32;;;;;;;16.73;12.90;;;19.40;99.90;;;;;;5022950;28;20374;-74
2022/08/16 09:03:58;;;;;;;21.75;14.13;;;19.50;99.90;;;;;;5023386;28;20129;-76
2022/08/16 09:06:24;;;;;;;22.50;13.93;;;19.70;99.90;;;;;;5028665;28;20064;-75
2022/08/16 09:08:50;;;;;;;19.08;13.55;;;19.90;99.90;;;;;;5023967;28;20494;-75
2022/08/16 09:11:16;;;;;;;25.67;17.10;;;20.20;99.90;;;;;;5027381;28;20475;-76
2022/08/16 09:13:43;;;;;;;18.35;13.55;;;20.50;99.90;;;;;;5025787;28;20489;-76
2022/08/16 09:16:08;;;;;;;15.65;10.38;;;20.80;99.90;;;;;;5027442;28;20025;-76
2022/08/16 09:18:34;;;;;;;17.08;11.38;;;20.90;99.90;;;;;;5020043;28;20440;-76
2022/08/16 09:21:00;;;;;;;13.43;10.05;;;20.80;99.90;;;;;;5022344;28;20038;-76
2022/08/16 09:23:27;;;;;;;16.55;9.95;;;21.00;99.90;;;;;;5022718;28;20437;-76
2022/08/16 09:25:53;;;;;;;13.52;10.05;;;21.20;99.90;;;;;;5022790;28;20025;-76
2022/08/16 09:28:19;;;;;;;17.73;11.10;;;21.30;99.90;;;;;;5020470;28;20439;-77
2022/08/16 09:30:45;;;;;;;19.40;9.52;;;21.50;99.90;;;;;;5021764;28;20455;-75
2022/08/16 09:33:17;;;;;;;19.92;10.55;;;21.50;99.90;;;;;;5024778;28;20029;-76
2022/08/16 09:35:43;;;;;;;13.55;9.32;;;21.50;99.90;;;;;;5019322;28;20516;-77
2022/08/16 09:38:11;;;;;;;15.05;10.50;;;21.30;99.90;;;;;;5027080;28;20030;-78
2022/08/16 09:40:36;;;;;;;17.27;11.23;;;21.10;99.90;;;;;;5023672;28;20029;-78
2022/08/16 09:43:03;;;;;;;15.20;10.73;;;20.90;99.90;;;;;;5027058;28;20041;-77
2022/08/16 09:45:29;;;;;;;19.90;11.25;;;20.80;99.90;;;;;;5024276;28;20045;-74
2022/08/16 09:47:56;;;;;;;12.60;11.32;;;20.70;99.90;;;;;;5021086;28;20057;-77
2022/08/16 09:50:24;;;;;;;13.32;11.02;;;20.60;99.90;;;;;;5026186;28;20038;-78
2022/08/16 09:52:49;;;;;;;14.05;10.90;;;20.60;99.90;;;;;;5023729;28;20449;-78
2022/08/16 09:55:15;;;;;;;16.50;11.90;;;20.40;99.90;;;;;;5022085;28;20061;-76
2022/08/16 09:57:41;;;;;;;12.70;10.60;;;20.30;99.90;;;;;;5015883;28;20025;-77
2022/08/16 10:00:11;;;;;;;14.63;12.68;;;20.10;99.90;;;;;;5021498;28;20473;-77
2022/08/16 10:02:38;;;;;;;15.38;10.40;;;20.00;99.90;;;;;;5025465;28;20049;-76
2022/08/16 10:05:04;;;;;;;20.17;11.13;;;19.90;99.90;;;;;;5017368;28;20428;-78
2022/08/16 10:07:31;;;;;;;15.50;9.73;;;19.90;99.90;;;;;;5024386;28;20572;-78
2022/08/16 10:09:57;;;;;;;14.20;9.45;;;19.80;99.90;;;;;;5022719;28;20504;-79
2022/08/16 10:15:19;;;;;;;14.02;10.15;;;19.70;99.90;;;;;;5026859;28;20041;-78
2022/08/16 10:17:48;;;;;;;14.20;11.60;;;20.00;99.90;;;;;;5018106;28;20145;-78
2022/08/16 10:20:14;;;;;;;13.55;10.48;;;20.30;99.90;;;;;;5020204;28;20037;-77
2022/08/16 10:22:40;;;;;;;15.35;11.43;;;20.60;99.90;;;;;;5014837;28;20391;-76
2022/08/16 10:25:07;;;;;;;13.23;9.90;;;21.00;99.90;;;;;;5022470;28;20108;-78
2022/08/16 10:27:34;;;;;;;11.68;9.32;;;21.30;99.90;;;;;;5021911;28;20036;-77
2022/08/16 10:30:00;;;;;;;10.18;9.00;;;21.50;99.90;;;;;;5022230;28;20072;-77
2022/08/16 10:32:27;;;;;;;16.75;10.48;;;21.50;99.90;;;;;;5025578;28;20029;-77
2022/08/16 10:34:52;;;;;;;10.07;8.07;;;21.40;99.90;;;;;;5023666;28;20033;-78
2022/08/16 10:37:18;;;;;;;8.10;7.18;;;21.40;99.90;;;;;;5025669;28;20124;-79
2022/08/16 10:39:44;;;;;;;9.63;8.45;;;21.40;99.90;;;;;;5025791;28;20037;-80
2022/08/16 10:42:10;;;;;;;11.77;9.10;;;21.40;99.90;;;;;;5024302;28;20026;-69
2022/08/16 10:44:36;;;;;;;9.65;8.35;;;21.30;99.90;;;;;;5021809;28;20045;-80
2022/08/16 10:47:03;;;;;;;7.88;6.88;;;21.20;99.90;;;;;;5015639;28;20440;-81
2022/08/16 10:49:29;;;;;;;13.55;7.43;;;21.20;99.90;;;;;;5017584;28;20397;-80
2022/08/16 10:51:54;;;;;;;7.40;6.45;;;21.50;99.90;;;;;;5023257;28;20041;-73
2022/08/16 10:54:21;;;;;;;13.77;8.20;;;21.90;99.90;;;;;;5015764;28;20022;-73
2022/08/16 10:56:47;;;;;;;14.30;7.07;;;22.20;99.90;;;;;;5020303;28;20045;-84
2022/08/16 10:59:13;;;;;;;7.50;6.38;;;22.30;99.90;;;;;;5023495;28;20144;-68
2022/08/16 11:01:39;;;;;;;8.10;7.28;;;22.10;99.90;;;;;;5018021;28;20113;-75
2022/08/16 11:04:06;;;;;;;9.27;5.07;;;22.30;99.90;;;;;;5021489;28;20033;-78
2022/08/16 11:06:32;;;;;;;8.50;5.10;;;22.40;99.90;;;;;;5020574;28;20038;-78
2022/08/16 11:08:58;;;;;;;8.30;4.85;;;22.40;99.90;;;;;;5025828;28;20564;-78
2022/08/16 11:11:25;;;;;;;7.38;4.45;;;22.40;99.90;;;;;;5023657;28;20038;-77
2022/08/16 11:13:51;;;;;;;10.77;5.25;;;22.50;99.90;;;;;;5016603;28;20030;-80
2022/08/16 11:16:18;;;;;;;7.88;5.75;;;22.60;99.90;;;;;;5023859;28;20052;-78
2022/08/16 11:18:44;;;;;;;6.60;5.60;;;22.60;99.90;;;;;;5021937;28;20037;-76
2022/08/16 11:21:11;;;;;;;6.75;5.93;;;22.70;99.90;;;;;;5019033;28;20038;-76
2022/08/16 11:23:36;;;;;;;8.98;6.28;;;22.80;99.90;;;;;;5018336;28;20065;-77
2022/08/16 11:26:02;;;;;;;9.45;6.32;;;23.00;99.90;;;;;;5019932;28;20065;-77
2022/08/16 11:28:28;;;;;;;10.75;6.45;;;23.30;99.90;;;;;;5021070;28;20103;-76
2022/08/16 11:30:53;;;;;;;7.55;5.40;;;23.50;99.90;;;;;;5013508;28;20417;-76
2022/08/16 11:33:19;;;;;;;6.60;5.15;;;23.40;99.90;;;;;;5017656;28;20033;-75
2022/08/16 11:35:45;;;;;;;7.25;3.45;;;23.40;99.90;;;;;;5020254;28;20041;-76
2022/08/16 11:38:15;;;;;;;6.53;3.70;;;23.20;99.90;;;;;;5020806;28;20113;-75
2022/08/16 11:40:48;;;;;;;4.80;3.22;;;23.30;99.90;;;;;;5027727;28;20040;-76
2022/08/16 11:43:16;;;;;;;5.57;3.33;;;23.30;99.90;;;;;;5027870;28;20488;-75
2022/08/16 11:45:43;;;;;;;8.30;4.03;;;23.50;99.90;;;;;;5025782;28;20042;-76
2022/08/16 11:48:09;;;;;;;4.03;3.42;;;23.80;99.90;;;;;;5028304;28;20060;-77
2022/08/16 11:50:35;;;;;;;6.38;4.30;;;23.70;99.90;;;;;;5025000;28;20073;-77
2022/08/16 11:53:03;;;;;;;4.22;3.22;;;23.70;99.90;;;;;;5027909;28;20079;-79
2022/08/16 11:55:29;;;;;;;5.53;3.38;;;23.50;99.90;;;;;;5025084;28;20028;-77
2022/08/16 11:57:55;;;;;;;4.63;3.28;;;23.30;99.90;;;;;;5016412;28;20087;-77
2022/08/16 12:00:21;;;;;;;4.95;3.50;;;23.10;99.90;;;;;;5018124;28;20025;-76
2022/08/16 12:02:46;;;;;;;5.15;4.18;;;23.10;99.90;;;;;;5026816;28;20041;-79
2022/08/16 12:05:14;;;;;;;5.88;4.47;;;23.20;99.90;;;;;;5026869;28;20037;-76
2022/08/16 12:07:41;;;;;;;8.60;4.55;;;23.40;99.90;;;;;;5019805;28;20029;-76
2022/08/16 12:10:13;;;;;;;21.27;13.90;;;23.40;99.90;;;;;;5021777;28;20044;-76
2022/08/16 12:12:41;;;;;;;6.32;5.13;;;23.50;99.90;;;;;;5018427;28;20042;-76
2022/08/16 12:15:08;;;;;;;7.55;4.88;;;23.50;99.90;;;;;;5022872;28;20025;-76
2022/08/16 12:17:34;;;;;;;8.32;4.85;;;23.50;99.90;;;;;;5010001;28;20447;-76
2022/08/16 12:20:03;;;;;;;6.82;4.97;;;23.30;99.90;;;;;;5020185;28;20030;-76
2022/08/16 12:22:29;;;;;;;7.20;5.60;;;23.00;99.90;;;;;;5027068;28;20036;-75
2022/08/16 12:24:55;;;;;;;5.90;4.50;;;23.00;99.90;;;;;;5024688;28;20026;-75
2022/08/16 12:27:23;;;;;;;5.97;4.57;;;22.90;99.90;;;;;;5014185;28;20022;-75
2022/08/16 12:29:50;;;;;;;6.70;5.45;;;23.00;99.90;;;;;;5028975;28;20022;-76
2022/08/16 12:32:16;;;;;;;5.43;4.75;;;23.10;99.90;;;;;;5027352;28;20485;-75